메인 페이지
METAR-TAF:

METAR-TAF

공항 :

살타, 아르헨티나

위도: 24-51S, 경도: 065-29W, 고도: 1238m

현재 날씨관측

예보는 1 시간 3분 전, 19:00시(UTC)에 발표되었습니다.
북동13kt
온도 27°C
습도 20%
기압 1011 hPa
시정 10km 이상
1500m 미만 상공 구름 및 적란운 없음

METAR: SASA 191900Z 05013KT CAVOK 27/02 Q1011

시각: 17:03 (20:03 UTC)

예보

예보는 3 시간 3분 전, 17:00시(UTC)에 발표되었습니다.
예보 대상 시간: 19일 18시부터 20일 18시까지 (UTC)
북동10kt
시정 10km 이상
고도 3500ft 상공 구름 보통
전환 중
20일 00시부터 20일 03시까지 (UTC)
북서5kt
시정: 5000m
고도 700ft 상공 구름 많음
고도 1000ft 상공 흐림
박무
전환 중
20일 07시부터 20일 10시까지 (UTC)
여러 방향의 바람 3kt
시정: 0500m
고도 500ft 상공 흐림
이슬비, 곳곳에 안개
전환 중
20일 13시부터 20일 16시까지 (UTC)
북동10kt
시정 10km 이상
고도 2500ft 상공 구름 많음

TAF: SASA 191700Z 1918/2018 05010KT 9999 SCT035 TX20/2018Z TN04/2010Z BECMG 2000/2003 32005KT 5000 BR BKN007 OVC010 BECMG 2007/2010 VRB03KT 0500 DZ BCFG OVC005 BECMG 2013/2016 05010KT 9999 NSW BKN025

4,000개 이상의 공항 관측 자료 및 예보 (METAR 및 TAF 보고).

지도상에서 검색 가능한 기상관측소가 노란 점과 빨간 점으로 표시되어 있습니다.

기상관측소 명을 보려면 표시 위로 마우스를 이동하세요.

날씨 관측과 예보를 보려면 클릭하세요.

지도 변경 : 확대하려면 엑스 표시가 있는 녹색 버튼, 축소하려면 빼기 표시가 있는 녹색 버튼, 다음 페이지의 지도를 보려면 녹색 화살표를 클릭하세요.


METAR-TAF: